Time;durP1;ratioP1;P1;durP2;ratioP2;P2;SDS_P1;SDS_P2;PMS_P1;PMS_P2;Temp;Humidity;BMP_temperature;BMP_pressure;BME280_temperature;BME280_humidity;BME280_pressure;Samples;Min_cycle;Max_cycle;Signal;HPM_P1;HPM_P2
2022/05/14 00:01:17;;;;;;;3.15;1.80;;;21.80;93.30;;;;;;4193648;28;20231;-75
2022/05/14 00:03:20;;;;;;;3.45;1.60;;;21.80;93.20;;;;;;4193541;28;20215;-75
2022/05/14 00:05:23;;;;;;;4.53;1.80;;;21.80;93.20;;;;;;4194004;28;20636;-75
2022/05/14 00:07:26;;;;;;;3.00;1.75;;;21.80;93.30;;;;;;4193776;28;20285;-75
2022/05/14 00:09:30;;;;;;;3.80;1.70;;;21.80;93.40;;;;;;4193760;28;20215;-75
2022/05/14 00:13:53;;;;;;;3.45;1.80;;;21.80;93.30;;;;;;4193608;28;21028;-75
2022/05/14 00:15:55;;;;;;;3.75;1.60;;;21.80;93.30;;;;;;4194211;28;20223;-75
2022/05/14 00:17:57;;;;;;;3.88;1.40;;;21.80;93.10;;;;;;4193179;28;20264;-75
2022/05/14 00:20:00;;;;;;;2.75;1.40;;;21.80;93.20;;;;;;4193812;28;20215;-75
2022/05/14 00:22:02;;;;;;;3.25;1.65;;;21.80;93.30;;;;;;4190458;28;20246;-75
2022/05/14 00:24:06;;;;;;;2.53;1.52;;;21.80;93.00;;;;;;4193092;28;20227;-75
2022/05/14 00:26:09;;;;;;;2.72;1.48;;;21.80;93.30;;;;;;4193976;28;20226;-76
2022/05/14 00:28:13;;;;;;;3.67;1.55;;;21.80;93.40;;;;;;4193148;28;20627;-75
2022/05/14 00:30:16;;;;;;;3.38;1.60;;;21.80;93.40;;;;;;4193089;28;20272;-75
2022/05/14 00:32:18;;;;;;;3.60;1.55;;;21.80;93.30;;;;;;4193566;28;20276;-75
2022/05/14 00:34:20;;;;;;;3.47;1.58;;;21.70;93.10;;;;;;4193644;28;20231;-75
2022/05/14 00:36:23;;;;;;;3.30;2.00;;;21.70;93.10;;;;;;4193798;28;20223;-75
2022/05/14 00:38:25;;;;;;;4.25;1.75;;;21.70;93.20;;;;;;4193211;28;20215;-75
2022/05/14 00:40:30;;;;;;;3.00;1.45;;;21.70;93.10;;;;;;4193532;28;20281;-75
2022/05/14 00:42:34;;;;;;;2.97;1.50;;;21.70;93.20;;;;;;4192620;28;20243;-75
2022/05/14 00:44:36;;;;;;;5.72;1.60;;;21.70;93.50;;;;;;4192896;28;20211;-75
2022/05/14 00:46:46;;;;;;;3.13;1.50;;;21.70;93.30;;;;;;4192884;28;20260;-75
2022/05/14 00:48:51;;;;;;;2.53;1.67;;;21.70;93.20;;;;;;4193417;28;20264;-75
2022/05/14 00:50:58;;;;;;;3.13;1.45;;;21.70;93.30;;;;;;4193074;28;20269;-75
2022/05/14 00:53:04;;;;;;;4.72;1.67;;;21.70;93.10;;;;;;4193992;28;20207;-75
2022/05/14 00:55:08;;;;;;;2.97;1.85;;;21.70;93.20;;;;;;4192693;28;20215;-75
2022/05/14 00:57:14;;;;;;;3.55;1.85;;;21.70;93.10;;;;;;4193422;28;20223;-75
2022/05/14 00:59:21;;;;;;;3.55;1.70;;;21.70;93.30;;;;;;4192460;28;21421;-75
2022/05/14 01:01:25;;;;;;;3.28;1.83;;;21.70;93.30;;;;;;4192890;28;20269;-75
2022/05/14 01:03:27;;;;;;;3.17;1.80;;;21.70;93.00;;;;;;4192543;28;20247;-75
2022/05/14 01:05:31;;;;;;;3.03;1.80;;;21.60;93.10;;;;;;4193460;28;20680;-75
2022/05/14 01:07:36;;;;;;;3.67;1.60;;;21.70;93.20;;;;;;4192738;28;20231;-75
2022/05/14 01:09:40;;;;;;;3.45;1.65;;;21.70;93.20;;;;;;4193174;28;20265;-75
2022/05/14 01:11:43;;;;;;;3.22;1.63;;;21.70;93.00;;;;;;4192683;28;20259;-75
2022/05/14 01:13:46;;;;;;;2.45;1.52;;;21.60;93.00;;;;;;4192822;28;20610;-75
2022/05/14 01:15:52;;;;;;;3.83;1.92;;;21.60;92.90;;;;;;4192395;28;20223;-75
2022/05/14 01:17:54;;;;;;;3.53;1.50;;;21.60;93.10;;;;;;4191411;28;20273;-75
2022/05/14 01:19:57;;;;;;;5.47;1.63;;;21.60;93.10;;;;;;4193158;28;20222;-75
2022/05/14 01:22:14;;;;;;;3.47;1.90;;;21.60;92.90;;;;;;4192607;28;20293;-75
2022/05/14 01:26:46;;;;;;;3.50;1.67;;;21.60;93.10;;;;;;4192655;28;20199;-75
2022/05/14 01:28:48;;;;;;;3.08;1.45;;;21.60;92.90;;;;;;4192011;28;20268;-75
2022/05/14 01:30:55;;;;;;;3.60;1.70;;;21.60;93.20;;;;;;4193235;28;20260;-75
2022/05/14 01:33:07;;;;;;;4.22;1.45;;;21.60;93.20;;;;;;4191247;28;20936;-75
2022/05/14 01:35:10;;;;;;;4.07;1.67;;;21.60;93.20;;;;;;4192042;28;20232;-75
2022/05/14 01:37:13;;;;;;;4.78;1.80;;;21.60;93.20;;;;;;4191575;28;20211;-75
2022/05/14 01:39:15;;;;;;;2.85;1.40;;;21.60;93.20;;;;;;4191823;28;20614;-75
2022/05/14 01:41:18;;;;;;;2.95;1.48;;;21.60;93.30;;;;;;4192199;28;20241;-75
2022/05/14 01:43:21;;;;;;;4.45;1.60;;;21.60;93.30;;;;;;4192259;28;20239;-75
2022/05/14 01:45:25;;;;;;;3.55;1.45;;;21.60;93.20;;;;;;4191792;28;20211;-75
2022/05/14 01:47:27;;;;;;;4.90;1.90;;;21.60;93.20;;;;;;4191925;28;20214;-75
2022/05/14 01:49:30;;;;;;;2.83;1.52;;;21.60;93.00;;;;;;4191553;28;20215;-75
2022/05/14 01:51:32;;;;;;;3.22;1.63;;;21.60;93.20;;;;;;4191470;28;20222;-75
2022/05/14 01:53:34;;;;;;;2.78;1.35;;;21.60;93.10;;;;;;4191725;28;20211;-75
2022/05/14 01:55:37;;;;;;;3.85;1.75;;;21.60;93.20;;;;;;4191680;28;20215;-75
2022/05/14 01:57:39;;;;;;;2.28;1.30;;;21.60;93.20;;;;;;4191313;28;20218;-75
2022/05/14 01:59:43;;;;;;;3.25;1.92;;;21.50;93.10;;;;;;4189043;28;20227;-75
2022/05/14 02:01:45;;;;;;;2.35;1.48;;;21.60;93.10;;;;;;4191867;28;20249;-75
2022/05/14 02:03:50;;;;;;;3.20;1.48;;;21.60;93.20;;;;;;4192710;28;20239;-75
2022/05/14 02:05:52;;;;;;;3.88;1.55;;;21.60;93.00;;;;;;4191663;28;20257;-75
2022/05/14 02:07:54;;;;;;;2.97;1.45;;;21.60;93.20;;;;;;4192723;28;20268;-75
2022/05/14 02:09:56;;;;;;;3.30;1.50;;;21.50;93.10;;;;;;4188825;28;20605;-75
2022/05/14 02:12:01;;;;;;;4.00;1.85;;;21.50;93.10;;;;;;4191780;28;20273;-75
2022/05/14 02:14:04;;;;;;;2.28;1.52;;;21.50;93.20;;;;;;4191955;28;20227;-75
2022/05/14 02:16:08;;;;;;;1.80;1.27;;;21.50;93.00;;;;;;4191198;28;20215;-75
2022/05/14 02:18:10;;;;;;;3.53;1.77;;;21.50;93.20;;;;;;4192137;28;20219;-75
2022/05/14 02:20:13;;;;;;;3.13;1.60;;;21.50;92.80;;;;;;4191910;28;20231;-75
2022/05/14 02:22:15;;;;;;;3.80;1.55;;;21.50;92.80;;;;;;4191222;28;20257;-75
2022/05/14 02:24:17;;;;;;;3.90;1.67;;;21.50;93.10;;;;;;4191798;28;20285;-75
2022/05/14 02:26:20;;;;;;;1.70;1.30;;;21.50;93.20;;;;;;4191120;28;20289;-75
2022/05/14 02:28:23;;;;;;;2.58;1.40;;;21.50;92.80;;;;;;4191434;28;20223;-75
2022/05/14 02:30:26;;;;;;;2.45;1.65;;;21.50;93.30;;;;;;4192047;28;20218;-74
2022/05/14 02:32:30;;;;;;;2.80;1.48;;;21.50;93.30;;;;;;4192914;28;20807;-74
2022/05/14 02:34:32;;;;;;;2.92;1.60;;;21.50;93.20;;;;;;4193324;28;20715;-74
2022/05/14 02:36:35;;;;;;;3.75;1.90;;;21.50;93.20;;;;;;4192689;28;20870;-74
2022/05/14 02:38:39;;;;;;;4.03;1.65;;;21.50;93.10;;;;;;4192976;28;20637;-74
2022/05/14 02:40:41;;;;;;;3.03;1.42;;;21.50;93.20;;;;;;4193505;28;20248;-74
2022/05/14 02:42:44;;;;;;;4.00;1.35;;;21.50;93.20;;;;;;4193054;28;20215;-74
2022/05/14 02:44:46;;;;;;;2.72;1.60;;;21.50;93.20;;;;;;4193676;28;20656;-74
2022/05/14 02:46:48;;;;;;;2.58;1.55;;;21.50;93.00;;;;;;4193598;28;20265;-74
2022/05/14 02:48:52;;;;;;;3.92;2.00;;;21.50;93.20;;;;;;4191587;28;20223;-75
2022/05/14 02:50:54;;;;;;;3.20;1.50;;;21.50;93.20;;;;;;4190904;28;20216;-75
2022/05/14 02:52:57;;;;;;;3.60;1.80;;;21.50;93.40;;;;;;4190671;28;20223;-75
2022/05/14 02:54:59;;;;;;;3.35;1.80;;;21.50;93.10;;;;;;4191326;28;20624;-75
2022/05/14 02:57:02;;;;;;;4.05;1.42;;;21.40;93.00;;;;;;4190303;28;20219;-75
2022/05/14 02:59:10;;;;;;;2.88;1.45;;;21.50;93.20;;;;;;4191199;28;20223;-75
2022/05/14 03:01:13;;;;;;;4.80;1.73;;;21.50;93.30;;;;;;4191234;28;20218;-75
2022/05/14 03:03:15;;;;;;;3.10;1.60;;;21.50;93.30;;;;;;4190317;28;20287;-75
2022/05/14 03:05:21;;;;;;;3.63;1.40;;;21.40;93.10;;;;;;4191066;28;20207;-75
2022/05/14 03:07:24;;;;;;;5.32;1.63;;;21.50;93.30;;;;;;4190450;28;20294;-75
2022/05/14 03:09:26;;;;;;;3.28;1.48;;;21.50;93.10;;;;;;4190265;28;20277;-75
2022/05/14 03:11:29;;;;;;;3.45;1.60;;;21.40;93.20;;;;;;4191248;28;20655;-75
2022/05/14 03:13:31;;;;;;;3.95;1.67;;;21.40;93.20;;;;;;4191068;28;20215;-75
2022/05/14 03:15:34;;;;;;;2.83;1.67;;;21.40;93.10;;;;;;4190465;28;20264;-75
2022/05/14 03:17:37;;;;;;;3.00;1.42;;;21.40;93.10;;;;;;4190989;28;20269;-75
2022/05/14 03:19:39;;;;;;;3.50;1.60;;;21.40;93.10;;;;;;4191606;28;20715;-75
2022/05/14 03:21:43;;;;;;;3.88;1.30;;;21.40;93.20;;;;;;4189347;28;20219;-75
2022/05/14 03:23:45;;;;;;;3.75;1.73;;;21.40;93.00;;;;;;4190818;28;20962;-75
2022/05/14 03:25:48;;;;;;;2.63;1.60;;;21.40;93.20;;;;;;4191453;28;20612;-75
2022/05/14 03:27:50;;;;;;;3.72;1.50;;;21.40;93.30;;;;;;4191312;28;20284;-75
2022/05/14 03:29:54;;;;;;;3.53;1.65;;;21.40;93.10;;;;;;4191606;28;20231;-75
2022/05/14 03:31:57;;;;;;;3.88;1.60;;;21.40;93.10;;;;;;4190929;28;20273;-75
2022/05/14 03:33:59;;;;;;;2.17;1.20;;;21.40;93.00;;;;;;4191131;28;20265;-75
2022/05/14 03:36:01;;;;;;;5.72;1.70;;;21.40;93.00;;;;;;4191308;28;20211;-75
2022/05/14 03:38:05;;;;;;;4.28;1.75;;;21.40;93.30;;;;;;4190395;28;20223;-75
2022/05/14 03:40:09;;;;;;;2.58;1.77;;;21.40;93.20;;;;;;4190564;28;20280;-75
2022/05/14 03:42:12;;;;;;;3.65;1.80;;;21.40;93.10;;;;;;4191839;28;20214;-75
2022/05/14 03:44:14;;;;;;;2.40;1.45;;;21.40;93.10;;;;;;4191304;28;20239;-75
2022/05/14 03:46:17;;;;;;;4.25;1.80;;;21.30;92.90;;;;;;4191812;28;20223;-75
2022/05/14 03:48:19;;;;;;;3.55;1.40;;;21.30;92.90;;;;;;4191114;28;20616;-75
2022/05/14 03:50:21;;;;;;;2.88;1.48;;;21.30;92.90;;;;;;4190750;28;20223;-75
2022/05/14 03:52:24;;;;;;;2.40;1.38;;;21.30;93.00;;;;;;4191920;28;20251;-75
2022/05/14 03:54:28;;;;;;;3.38;1.55;;;21.30;93.20;;;;;;4193819;28;20353;-75
2022/05/14 03:56:30;;;;;;;3.80;1.65;;;21.30;93.00;;;;;;4192539;28;20215;-75
2022/05/14 03:58:32;;;;;;;3.90;1.48;;;21.30;92.90;;;;;;4190370;28;20219;-76
2022/05/14 04:00:35;;;;;;;1.92;1.33;;;21.30;93.00;;;;;;4194034;28;20241;-75
2022/05/14 04:02:38;;;;;;;3.55;1.50;;;21.30;92.90;;;;;;4194144;28;20264;-75
2022/05/14 04:04:40;;;;;;;4.47;1.60;;;21.30;93.20;;;;;;4194092;28;20768;-75
2022/05/14 04:06:42;;;;;;;3.40;1.67;;;21.30;93.30;;;;;;4192678;28;20320;-75
2022/05/14 04:08:44;;;;;;;1.83;1.38;;;21.30;93.50;;;;;;4194598;28;20222;-75
2022/05/14 04:10:48;;;;;;;2.30;1.52;;;21.30;92.90;;;;;;4193358;28;20256;-75
2022/05/14 04:12:52;;;;;;;4.13;1.70;;;21.30;93.00;;;;;;4193794;28;20224;-75
2022/05/14 04:14:54;;;;;;;4.03;1.73;;;21.30;93.20;;;;;;4193454;28;20219;-75
2022/05/14 04:16:58;;;;;;;3.53;1.52;;;21.30;93.20;;;;;;4193089;28;20243;-75
2022/05/14 04:19:00;;;;;;;3.10;1.40;;;21.30;93.20;;;;;;4192876;28;20219;-76
2022/05/14 04:21:03;;;;;;;4.20;1.60;;;21.30;93.10;;;;;;4193901;28;20281;-75
2022/05/14 04:23:07;;;;;;;4.22;1.60;;;21.20;92.90;;;;;;4194410;28;20280;-75
2022/05/14 04:25:10;;;;;;;2.30;1.10;;;21.30;93.00;;;;;;4193726;28;20660;-75
2022/05/14 04:27:14;;;;;;;4.03;1.38;;;21.30;92.90;;;;;;4193109;28;20215;-75
2022/05/14 04:29:16;;;;;;;3.85;1.73;;;21.30;93.00;;;;;;4192998;28;20223;-75
2022/05/14 04:31:21;;;;;;;3.78;1.75;;;21.20;93.10;;;;;;4192363;28;20629;-75
2022/05/14 04:33:25;;;;;;;3.25;1.50;;;21.20;93.20;;;;;;4192824;28;20215;-75
2022/05/14 04:35:27;;;;;;;3.72;1.60;;;21.30;93.00;;;;;;4192771;28;20219;-75
2022/05/14 04:37:30;;;;;;;3.78;1.50;;;21.20;93.00;;;;;;4193059;28;20252;-75
2022/05/14 04:39:32;;;;;;;3.55;1.52;;;21.20;93.10;;;;;;4193784;28;20223;-75
2022/05/14 04:41:35;;;;;;;3.40;1.50;;;21.20;93.10;;;;;;4193669;28;20219;-75
2022/05/14 04:43:39;;;;;;;4.70;1.80;;;21.20;93.00;;;;;;4193102;28;20219;-75
2022/05/14 04:45:43;;;;;;;2.75;1.52;;;21.20;93.20;;;;;;4192075;28;20243;-75
2022/05/14 04:47:45;;;;;;;3.72;1.55;;;21.20;93.10;;;;;;4191297;28;20231;-75
2022/05/14 04:49:49;;;;;;;4.07;1.77;;;21.20;93.00;;;;;;4193108;28;20730;-75
2022/05/14 04:51:51;;;;;;;2.63;1.40;;;21.20;93.10;;;;;;4192732;28;20223;-75
2022/05/14 04:53:54;;;;;;;4.00;1.58;;;21.20;93.10;;;;;;4193349;28;20268;-75
2022/05/14 04:55:56;;;;;;;3.42;1.65;;;21.20;93.10;;;;;;4190440;28;20223;-75
2022/05/14 04:57:59;;;;;;;3.17;1.75;;;21.20;93.10;;;;;;4191712;28;20276;-75
2022/05/14 05:00:04;;;;;;;2.88;1.35;;;21.20;93.40;;;;;;4192804;28;20223;-75
2022/05/14 05:04:32;;;;;;;1.63;1.45;;;21.20;93.00;;;;;;4173592;28;20765;-75
2022/05/14 05:06:34;;;;;;;4.28;1.83;;;21.20;93.00;;;;;;4192374;28;20261;-75
2022/05/14 05:08:38;;;;;;;3.20;1.67;;;21.20;93.00;;;;;;4192831;28;20215;-75
2022/05/14 05:10:41;;;;;;;3.25;1.50;;;21.20;93.30;;;;;;4192763;28;20215;-75
2022/05/14 05:12:43;;;;;;;2.35;1.50;;;21.20;93.00;;;;;;4193092;28;20623;-75
2022/05/14 05:14:45;;;;;;;3.83;1.50;;;21.20;93.00;;;;;;4192454;28;20208;-75
2022/05/14 05:16:50;;;;;;;3.22;1.83;;;21.20;93.10;;;;;;4193074;28;20233;-75
2022/05/14 05:18:53;;;;;;;3.60;1.40;;;21.20;93.10;;;;;;4192650;28;20211;-75
2022/05/14 05:20:56;;;;;;;3.10;1.33;;;21.20;93.10;;;;;;4191915;28;20223;-75
2022/05/14 05:22:59;;;;;;;3.75;1.70;;;21.20;93.10;;;;;;4192368;28;20336;-75
2022/05/14 05:25:01;;;;;;;3.08;1.73;;;21.20;93.00;;;;;;4192896;28;20659;-75
2022/05/14 05:27:04;;;;;;;3.30;1.80;;;21.20;93.40;;;;;;4192273;28;20222;-75
2022/05/14 05:29:06;;;;;;;4.38;1.77;;;21.20;93.20;;;;;;4191766;28;20964;-75
2022/05/14 05:31:09;;;;;;;3.85;1.48;;;21.20;93.10;;;;;;4192384;28;20699;-75
2022/05/14 05:33:14;;;;;;;3.88;1.60;;;21.20;93.20;;;;;;4192060;28;20695;-75
2022/05/14 05:35:17;;;;;;;4.13;1.73;;;21.20;93.10;;;;;;4191674;28;20268;-75
2022/05/14 05:37:19;;;;;;;4.78;1.77;;;21.20;93.50;;;;;;4191953;28;20272;-75
2022/05/14 05:39:22;;;;;;;2.40;1.30;;;21.20;93.10;;;;;;4192012;28;20231;-75
2022/05/14 05:41:24;;;;;;;3.05;1.40;;;21.20;93.10;;;;;;4192689;28;20230;-75
2022/05/14 05:43:26;;;;;;;3.45;1.63;;;21.20;93.10;;;;;;4190656;28;20227;-75
2022/05/14 05:45:29;;;;;;;3.00;1.48;;;21.20;93.40;;;;;;4192062;28;20289;-75
2022/05/14 05:47:32;;;;;;;2.80;1.13;;;21.20;93.00;;;;;;4187450;28;20219;-75
2022/05/14 05:49:38;;;;;;;4.05;1.48;;;21.20;93.10;;;;;;4191971;28;20235;-75
2022/05/14 05:51:40;;;;;;;3.72;1.90;;;21.20;93.20;;;;;;4192281;28;20227;-74
2022/05/14 05:58:22;;;;;;;6.18;1.73;;;21.20;93.10;;;;;;4192249;28;20240;-75
2022/05/14 06:00:28;;;;;;;4.50;1.58;;;21.20;93.10;;;;;;4188798;28;20737;-75
2022/05/14 06:02:30;;;;;;;4.65;1.77;;;21.20;93.20;;;;;;4191463;28;20222;-75
2022/05/14 06:04:33;;;;;;;3.65;1.55;;;21.20;93.20;;;;;;4192026;28;20215;-75
2022/05/14 06:06:41;;;;;;;3.80;1.50;;;21.20;93.20;;;;;;4191808;28;20300;-75
2022/05/14 06:08:43;;;;;;;3.80;2.00;;;21.20;93.30;;;;;;4191901;28;20639;-75
2022/05/14 06:10:45;;;;;;;4.45;1.63;;;21.20;93.30;;;;;;4191851;28;20694;-75
2022/05/14 06:12:48;;;;;;;2.58;1.50;;;21.20;93.40;;;;;;4191683;28;20636;-75
2022/05/14 06:14:50;;;;;;;5.38;1.83;;;21.20;93.80;;;;;;4191980;28;20664;-75
2022/05/14 06:16:53;;;;;;;4.38;1.85;;;21.20;93.40;;;;;;4191100;28;20219;-75
2022/05/14 06:18:55;;;;;;;2.55;1.45;;;21.20;93.40;;;;;;4191371;28;20215;-75
2022/05/14 06:20:57;;;;;;;5.00;1.70;;;21.20;93.50;;;;;;4191637;28;20215;-75
2022/05/14 06:23:01;;;;;;;3.72;1.40;;;21.20;93.50;;;;;;4191286;28;20211;-75
2022/05/14 06:25:05;;;;;;;4.28;1.70;;;21.20;93.40;;;;;;4191366;28;20799;-75
2022/05/14 06:27:07;;;;;;;2.55;1.50;;;21.20;93.50;;;;;;4190945;28;20376;-75
2022/05/14 06:29:10;;;;;;;4.47;1.60;;;21.20;93.50;;;;;;4191507;28;20223;-75
2022/05/14 06:31:12;;;;;;;4.43;1.70;;;21.20;93.50;;;;;;4191756;28;20218;-75
2022/05/14 06:33:17;;;;;;;3.22;1.80;;;21.20;93.50;;;;;;4191896;28;20218;-75
2022/05/14 06:35:19;;;;;;;3.67;1.48;;;21.20;93.50;;;;;;4189913;28;20259;-75
2022/05/14 06:37:22;;;;;;;3.60;1.63;;;21.20;93.60;;;;;;4190871;28;20219;-75
2022/05/14 06:39:27;;;;;;;4.00;1.70;;;21.20;93.50;;;;;;4191105;28;20215;-75
2022/05/14 06:41:30;;;;;;;5.43;1.80;;;21.20;93.60;;;;;;4191527;28;20218;-75
2022/05/14 06:43:32;;;;;;;3.22;1.60;;;21.20;93.80;;;;;;4191354;28;20222;-75
2022/05/14 06:45:35;;;;;;;3.67;1.58;;;21.20;93.70;;;;;;4188972;28;20292;-75
2022/05/14 06:47:38;;;;;;;4.28;1.70;;;21.10;93.60;;;;;;4191622;28;20247;-75
2022/05/14 06:49:40;;;;;;;2.33;1.60;;;21.20;93.70;;;;;;4191778;28;20219;-75
2022/05/14 06:51:42;;;;;;;4.22;1.83;;;21.20;93.60;;;;;;4192075;28;20705;-75
2022/05/14 06:53:45;;;;;;;3.75;1.70;;;21.20;93.80;;;;;;4191049;28;20269;-75
2022/05/14 06:55:54;;;;;;;3.92;1.52;;;21.20;93.80;;;;;;4191697;28;20215;-75
2022/05/14 06:57:56;;;;;;;5.05;1.67;;;21.20;93.80;;;;;;4191044;28;20215;-75
2022/05/14 06:59:58;;;;;;;4.07;1.55;;;21.20;93.90;;;;;;4191023;28;20223;-75
2022/05/14 07:02:01;;;;;;;3.53;1.50;;;21.20;93.90;;;;;;4188291;28;20215;-75
2022/05/14 07:06:38;;;;;;;4.35;1.90;;;21.10;93.90;;;;;;4191409;28;20238;-75
2022/05/14 07:08:41;;;;;;;4.03;1.67;;;21.20;93.90;;;;;;4190973;28;20210;-75
2022/05/14 07:10:43;;;;;;;3.13;1.58;;;21.20;93.90;;;;;;4190711;28;20227;-75
2022/05/14 07:12:48;;;;;;;6.75;2.05;;;21.20;93.90;;;;;;4191725;28;20268;-75
2022/05/14 07:14:50;;;;;;;2.58;1.40;;;21.10;93.80;;;;;;4191652;28;20625;-75
2022/05/14 07:16:53;;;;;;;3.55;1.52;;;21.20;93.90;;;;;;4191466;28;20663;-75
2022/05/14 07:18:55;;;;;;;4.63;1.80;;;21.20;93.90;;;;;;4191244;28;20215;-75
2022/05/14 07:20:57;;;;;;;4.28;1.70;;;21.20;93.90;;;;;;4190947;28;20249;-75
2022/05/14 07:22:59;;;;;;;4.93;1.52;;;21.20;93.90;;;;;;4191048;28;20264;-75
2022/05/14 07:25:02;;;;;;;4.00;1.90;;;21.20;93.90;;;;;;4190981;28;20215;-75
2022/05/14 07:27:09;;;;;;;5.43;1.63;;;21.20;94.30;;;;;;4191011;28;20227;-75
2022/05/14 07:29:16;;;;;;;5.20;2.05;;;21.20;94.10;;;;;;4193812;28;20256;-75
2022/05/14 07:31:18;;;;;;;3.85;1.80;;;21.20;94.10;;;;;;4193845;28;20286;-75
2022/05/14 07:33:20;;;;;;;3.40;1.63;;;21.20;93.90;;;;;;4194581;28;20223;-75
2022/05/14 07:35:23;;;;;;;3.65;1.63;;;21.20;94.00;;;;;;4190633;28;20223;-75
2022/05/14 07:37:31;;;;;;;2.97;1.60;;;21.20;94.30;;;;;;4194741;28;20215;-75
2022/05/14 07:39:36;;;;;;;4.18;1.80;;;21.30;94.10;;;;;;4194550;28;20215;-75
2022/05/14 07:41:43;;;;;;;3.75;1.73;;;21.30;94.20;;;;;;4194392;28;20227;-75
2022/05/14 07:43:50;;;;;;;4.10;1.50;;;21.30;94.30;;;;;;4193622;28;20234;-75
2022/05/14 07:45:58;;;;;;;2.53;1.15;;;21.30;94.40;;;;;;4193658;28;20238;-75
2022/05/14 07:48:05;;;;;;;4.57;1.90;;;21.30;94.30;;;;;;4193358;28;20230;-75
2022/05/14 07:50:08;;;;;;;6.97;1.80;;;21.30;94.40;;;;;;4193740;28;20269;-75
2022/05/14 07:52:11;;;;;;;4.93;1.67;;;21.30;94.10;;;;;;4193827;28;20284;-75
2022/05/14 07:54:14;;;;;;;3.53;1.45;;;21.30;94.20;;;;;;4193714;28;20223;-75
2022/05/14 07:56:16;;;;;;;5.30;1.70;;;21.30;94.10;;;;;;4194292;28;20222;-75
2022/05/14 07:58:19;;;;;;;5.82;1.90;;;21.30;94.20;;;;;;4193741;28;20288;-75
2022/05/14 08:00:22;;;;;;;3.22;1.70;;;21.40;94.00;;;;;;4194156;28;20675;-75
2022/05/14 08:02:31;;;;;;;3.05;1.80;;;21.40;94.20;;;;;;4193455;28;20288;-75
2022/05/14 08:04:34;;;;;;;4.57;1.75;;;21.40;94.20;;;;;;4193366;28;20222;-75
2022/05/14 08:06:37;;;;;;;4.63;1.70;;;21.40;94.20;;;;;;4193750;28;20234;-75
2022/05/14 08:08:39;;;;;;;4.57;1.95;;;21.50;94.00;;;;;;4193259;28;20265;-75
2022/05/14 08:10:41;;;;;;;4.07;1.88;;;21.50;94.30;;;;;;4193719;28;20219;-75
2022/05/14 08:12:46;;;;;;;4.85;1.90;;;21.50;94.60;;;;;;4193679;28;20223;-75
2022/05/14 08:14:48;;;;;;;4.03;1.83;;;21.50;94.60;;;;;;4193820;28;20218;-75
2022/05/14 08:16:51;;;;;;;3.83;1.75;;;21.50;94.30;;;;;;4193970;28;20211;-75
2022/05/14 08:18:55;;;;;;;3.88;2.10;;;21.60;94.30;;;;;;4192904;28;20671;-75
2022/05/14 08:24:29;;;;;;;4.78;1.80;;;21.50;94.30;;;;;;4193833;28;20215;-75
2022/05/14 08:25:40;;;;;;;4.15;1.88;;;21.60;94.50;;;;;;4193158;28;20571;-75
2022/05/14 08:27:45;;;;;;;5.63;1.73;;;21.60;94.30;;;;;;4192753;28;20247;-75
2022/05/14 08:29:48;;;;;;;5.20;2.13;;;21.60;94.40;;;;;;4192895;28;20223;-75
2022/05/14 08:31:51;;;;;;;4.32;1.73;;;21.60;94.50;;;;;;4193017;28;20269;-76
2022/05/14 08:33:55;;;;;;;4.50;1.85;;;21.60;94.10;;;;;;4189404;28;20265;-77
2022/05/14 08:35:57;;;;;;;4.70;1.83;;;21.60;94.40;;;;;;4192935;28;20680;-75
2022/05/14 08:37:59;;;;;;;3.95;1.63;;;21.60;94.40;;;;;;4193466;28;20650;-75
2022/05/14 08:40:06;;;;;;;4.68;1.58;;;21.60;94.40;;;;;;4193029;28;20215;-75
2022/05/14 08:42:11;;;;;;;5.22;1.70;;;21.70;94.60;;;;;;4193188;28;20227;-75
2022/05/14 08:44:17;;;;;;;5.30;1.85;;;21.70;94.40;;;;;;4193203;28;20550;-75
2022/05/14 08:46:21;;;;;;;3.55;2.00;;;21.70;94.40;;;;;;4192142;28;20300;-75
2022/05/14 08:48:28;;;;;;;3.72;1.42;;;21.70;94.60;;;;;;4192150;28;20277;-75
2022/05/14 08:50:35;;;;;;;4.70;1.92;;;21.70;94.40;;;;;;4190313;28;20227;-75
2022/05/14 08:52:39;;;;;;;4.07;1.70;;;21.70;94.60;;;;;;4192430;28;20215;-75
2022/05/14 08:54:42;;;;;;;6.78;2.08;;;21.70;94.50;;;;;;4192646;28;20606;-75
2022/05/14 08:56:51;;;;;;;4.07;1.70;;;21.70;94.70;;;;;;4191953;28;20352;-75
2022/05/14 08:59:03;;;;;;;3.17;1.63;;;21.70;94.60;;;;;;4192908;28;20667;-75
2022/05/14 09:01:07;;;;;;;4.35;1.75;;;21.70;94.60;;;;;;4193179;28;20218;-75
2022/05/14 09:03:10;;;;;;;4.25;1.98;;;21.80;94.70;;;;;;4192268;28;20729;-75
2022/05/14 09:05:17;;;;;;;3.60;1.80;;;21.80;94.80;;;;;;4191982;28;20368;-75
2022/05/14 09:07:20;;;;;;;4.43;1.77;;;21.80;94.70;;;;;;4188859;28;20239;-75
2022/05/14 09:09:23;;;;;;;3.72;1.90;;;21.80;94.80;;;;;;4192279;28;20709;-75
2022/05/14 09:11:28;;;;;;;3.65;1.98;;;21.80;94.70;;;;;;4192858;28;20219;-75
2022/05/14 09:13:43;;;;;;;5.47;1.88;;;21.80;94.60;;;;;;4191975;28;20272;-75
2022/05/14 09:15:49;;;;;;;4.25;1.80;;;21.80;94.70;;;;;;4192815;28;20240;-75
2022/05/14 09:18:04;;;;;;;3.47;1.85;;;21.80;94.80;;;;;;4191939;28;20272;-75
2022/05/14 09:20:08;;;;;;;5.15;2.00;;;21.80;95.10;;;;;;4192061;28;20223;-75
2022/05/14 09:22:24;;;;;;;2.88;1.92;;;21.80;94.60;;;;;;4188782;28;20222;-75
2022/05/14 09:24:28;;;;;;;5.28;2.05;;;21.90;94.80;;;;;;4190110;28;20648;-75
2022/05/14 09:26:35;;;;;;;3.45;1.92;;;21.80;94.50;;;;;;4191022;28;20227;-75
2022/05/14 09:28:42;;;;;;;4.07;2.00;;;21.90;94.70;;;;;;4192506;28;20231;-75
2022/05/14 09:30:52;;;;;;;4.43;1.75;;;21.90;94.70;;;;;;4191962;28;20219;-75
2022/05/14 09:32:55;;;;;;;4.47;1.85;;;21.90;94.50;;;;;;4191886;28;20624;-75
2022/05/14 09:35:17;;;;;;;4.47;2.05;;;21.90;94.80;;;;;;4189622;28;20215;-75
2022/05/14 09:37:24;;;;;;;3.65;1.73;;;21.90;94.70;;;;;;4192344;28;20672;-75
2022/05/14 09:39:28;;;;;;;2.92;1.65;;;21.90;94.70;;;;;;4191612;28;20218;-75
2022/05/14 09:41:38;;;;;;;3.47;1.50;;;21.90;94.90;;;;;;4191850;28;20281;-75
2022/05/14 09:43:40;;;;;;;2.63;1.60;;;21.90;94.70;;;;;;4192204;28;21004;-76
2022/05/14 09:45:44;;;;;;;5.38;1.92;;;21.90;94.50;;;;;;4192258;28;20261;-76
2022/05/14 09:47:47;;;;;;;3.63;1.92;;;21.90;94.60;;;;;;4191873;28;20242;-75
2022/05/14 09:49:55;;;;;;;6.72;1.77;;;21.90;94.50;;;;;;4191394;28;20253;-74
2022/05/14 09:52:06;;;;;;;3.80;1.70;;;21.90;94.70;;;;;;4190628;28;20264;-74
2022/05/14 09:54:13;;;;;;;5.18;1.92;;;21.90;94.60;;;;;;4193141;28;20617;-74
2022/05/14 09:56:43;;;;;;;4.43;1.95;;;21.90;94.60;;;;;;4192002;28;20227;-74
2022/05/14 09:58:55;;;;;;;5.45;2.08;;;21.90;94.70;;;;;;4192405;28;20265;-74
2022/05/14 10:01:03;;;;;;;4.65;1.65;;;21.90;94.50;;;;;;4192293;28;20219;-74
2022/05/14 10:03:22;;;;;;;3.78;1.83;;;21.90;94.80;;;;;;4192510;28;20724;-74
2022/05/14 10:05:40;;;;;;;3.63;1.83;;;21.90;94.90;;;;;;4192012;28;20261;-74
2022/05/14 10:07:48;;;;;;;4.15;1.75;;;21.90;94.90;;;;;;4192907;28;20292;-74
2022/05/14 10:09:58;;;;;;;5.25;1.95;;;21.90;94.90;;;;;;4192795;28;20280;-74
2022/05/14 10:12:12;;;;;;;3.22;1.80;;;21.90;94.80;;;;;;4192979;28;20223;-74
2022/05/14 10:14:27;;;;;;;4.75;1.98;;;22.00;94.80;;;;;;4192537;28;20266;-74
2022/05/14 10:16:34;;;;;;;4.65;2.25;;;22.00;94.70;;;;;;4192049;28;20276;-74
2022/05/14 10:18:50;;;;;;;3.75;1.98;;;22.00;94.90;;;;;;4192581;28;20269;-74
2022/05/14 10:20:58;;;;;;;4.07;1.90;;;21.90;94.70;;;;;;4192161;28;20223;-74
2022/05/14 10:28:36;;;;;;;3.92;1.88;;;21.90;94.70;;;;;;4190601;28;20223;-74
2022/05/14 10:30:48;;;;;;;3.83;2.20;;;21.90;94.80;;;;;;4189113;28;20257;-74
2022/05/14 10:32:55;;;;;;;3.75;1.88;;;21.90;95.00;;;;;;4192454;28;20697;-74
2022/05/14 10:35:03;;;;;;;5.32;2.20;;;21.90;94.80;;;;;;4190771;28;20925;-74
2022/05/14 10:37:14;;;;;;;6.25;2.30;;;22.00;95.10;;;;;;4189346;28;20276;-74
2022/05/14 10:39:25;;;;;;;3.50;1.92;;;21.90;94.80;;;;;;4192332;28;20241;-74
2022/05/14 10:41:34;;;;;;;3.75;1.73;;;21.90;94.80;;;;;;4192328;28;20219;-74
2022/05/14 10:43:45;;;;;;;4.10;2.33;;;22.00;94.80;;;;;;4191393;28;20264;-74
2022/05/14 10:45:52;;;;;;;4.05;1.85;;;22.00;94.80;;;;;;4192399;28;20219;-74
2022/05/14 10:48:07;;;;;;;6.00;2.10;;;22.00;94.80;;;;;;4192198;28;20284;-74
2022/05/14 10:50:16;;;;;;;3.22;2.05;;;21.90;94.80;;;;;;4191834;28;20283;-74
2022/05/14 10:52:18;;;;;;;4.35;1.95;;;22.00;95.10;;;;;;4191795;28;20683;-74
2022/05/14 10:54:24;;;;;;;5.10;2.05;;;22.00;94.90;;;;;;4192881;28;20227;-74
2022/05/14 10:56:30;;;;;;;5.55;1.95;;;21.90;95.10;;;;;;4192589;28;20720;-74
2022/05/14 10:58:43;;;;;;;5.63;2.20;;;22.00;94.90;;;;;;4191450;28;20667;-74
2022/05/14 11:00:46;;;;;;;3.65;1.70;;;22.00;94.90;;;;;;4190888;28;20227;-75
2022/05/14 11:02:56;;;;;;;3.83;1.98;;;21.90;94.80;;;;;;4192877;28;20257;-75
2022/05/14 11:04:59;;;;;;;4.25;1.85;;;22.00;94.90;;;;;;4193135;28;20292;-76
2022/05/14 11:07:03;;;;;;;4.40;2.10;;;22.00;94.90;;;;;;4193997;28;20257;-75
2022/05/14 11:09:18;;;;;;;4.88;1.83;;;22.00;94.90;;;;;;4193503;28;20654;-76
2022/05/14 11:11:25;;;;;;;6.57;2.40;;;22.00;95.00;;;;;;4193820;28;20227;-75